Terminal Aerodrome Forecast
Issued by NWS

Home | Current Version | Previous Version | Text Only | Print | Product List | Glossary On
Versions: 1 2 3 4 5 6 7 8 9 10 11 12 13
000
FTUS45 KABQ 292030 AAA
TAFSAF
TAF AMD
KSAF 292030Z 2921/3018 14011KT P6SM VCTS SCT090CB
      TEMPO 2921/2922 VRB20G30KT -TSRA BKN070CB
     FM300000 13010KT P6SM SCT070
     FM300400 12005KT P6SM FEW150
     FM301000 01006KT P6SM FEW070 FEW150=

USA.gov is the U.S. government's official web portal to all federal, state and local government web resources and services.